Charlestown, Rhode Island
Current Conditions -  °F | °C
As of 12:53 AM on Thursday 23 Oct 2014 (Local Time) from KWST Reporting Station
Light Rain Light Rain  
Wind Chill: 53°   Ceiling: 2600
Heat Index: 53°   Visibility: 10mi
Dew Point: 49°   Wind: 20mph
Humidity: 86%   Direction: 10°N
Pressure: 29.67"   Gusts: 29mph
Location:  41.38°N, 71.64°W
Report Text: KWST 230453Z AUTO 01017G25KT 10SM -RA SCT014 OVC026 12/09 A2967 RMK AO2 PK WND 01027/0406 SLP047 P0000 T01170094 401440106
Loading
Personal Weather Stations






























Interactive Weather Map
Tropical Storm Tracking
New forecast layout! Learn more

10-Day Weather Forecast

Advertisements
Track Severe Weather on mobile